createdAt,value
2023-03-11T00:00:38.343Z,3.92
2023-03-11T00:01:38.318Z,3.98
2023-03-11T00:02:38.312Z,3.96
2023-03-11T00:03:38.301Z,4.01
2023-03-11T00:04:38.324Z,3.89
2023-03-11T00:05:38.337Z,3.98
2023-03-11T00:06:38.281Z,3.98
2023-03-11T00:07:38.257Z,3.98
2023-03-11T00:08:38.271Z,3.98
2023-03-11T00:09:38.255Z,3.96
2023-03-11T00:10:38.229Z,3.89
2023-03-11T00:11:38.215Z,3.83
2023-03-11T00:12:38.205Z,3.88
2023-03-11T00:13:38.197Z,3.83
2023-03-11T00:14:38.215Z,3.86
2023-03-11T00:15:38.170Z,3.89
2023-03-11T00:16:38.242Z,3.67
2023-03-11T00:17:38.161Z,3.86
2023-03-11T00:18:38.188Z,3.82
2023-03-11T00:19:38.138Z,3.78
2023-03-11T00:20:38.147Z,3.78
2023-03-11T00:21:38.120Z,3.75
2023-03-11T00:22:38.097Z,3.72
2023-03-11T00:23:38.085Z,3.79
2023-03-11T00:24:38.096Z,3.64
2023-03-11T00:25:38.062Z,3.67
2023-03-11T00:26:38.054Z,3.71
2023-03-11T00:27:38.044Z,3.64
2023-03-11T00:28:38.046Z,3.65
2023-03-11T00:29:38.115Z,3.67
2023-03-11T00:30:38.053Z,3.67
2023-03-11T00:31:38.000Z,3.67
2023-03-11T00:32:38.081Z,3.67
2023-03-11T00:33:37.981Z,3.68
2023-03-11T00:34:37.988Z,3.60
2023-03-11T00:35:38.054Z,3.54
2023-03-11T00:36:37.984Z,3.70
2023-03-11T00:37:37.936Z,3.57
2023-03-11T00:38:37.960Z,3.54
2023-03-11T00:39:37.932Z,3.58
2023-03-11T00:40:37.903Z,3.49
2023-03-11T00:41:37.890Z,3.46
2023-03-11T00:42:37.880Z,3.47
2023-03-11T00:43:37.867Z,3.47
2023-03-11T00:44:37.879Z,3.40
2023-03-11T00:45:37.847Z,3.40
2023-03-11T00:46:37.891Z,3.40
2023-03-11T00:47:37.824Z,3.39
2023-03-11T00:48:37.822Z,3.34
2023-03-11T00:49:37.853Z,3.42
2023-03-11T00:50:37.789Z,3.33
2023-03-11T00:51:37.783Z,3.40
2023-03-11T00:52:37.803Z,3.40
2023-03-11T00:53:37.766Z,3.34
2023-03-11T00:54:37.768Z,3.33
2023-03-11T00:55:37.746Z,3.33
2023-03-11T00:56:37.733Z,3.30
2023-03-11T00:57:37.717Z,3.24
2023-03-11T00:58:37.710Z,3.23
2023-03-11T00:59:37.721Z,3.27
2023-03-11T01:00:37.696Z,3.28
2023-03-11T01:01:37.757Z,3.27
2023-03-11T01:02:37.669Z,3.28
2023-03-11T01:03:37.651Z,3.28
2023-03-11T01:04:37.705Z,3.21
2023-03-11T01:05:37.628Z,3.31
2023-03-11T01:06:45.219Z,3.24
2023-03-11T01:07:38.605Z,3.34
2023-03-11T01:08:37.636Z,3.28
2023-03-11T01:09:37.610Z,3.28
2023-03-11T01:10:37.579Z,3.27
2023-03-11T01:11:37.564Z,3.25
2023-03-11T01:12:37.556Z,3.23
2023-03-11T01:13:37.541Z,3.25
2023-03-11T01:14:37.554Z,3.20
2023-03-11T01:15:37.572Z,3.25
2023-03-11T01:16:37.510Z,3.27
2023-03-11T01:17:37.503Z,3.23
2023-03-11T01:18:37.489Z,3.13
2023-03-11T01:19:37.495Z,3.24
2023-03-11T01:20:37.466Z,3.23
2023-03-11T01:21:37.458Z,3.16
2023-03-11T01:22:37.594Z,3.16
2023-03-11T01:23:37.440Z,3.20
2023-03-11T01:24:37.457Z,3.16
2023-03-11T01:25:37.409Z,3.10
2023-03-11T01:26:37.405Z,3.10
2023-03-11T01:27:37.388Z,3.10
2023-03-11T01:28:37.386Z,2.98
2023-03-11T01:29:37.418Z,3.09
2023-03-11T01:30:37.362Z,3.12
2023-03-11T01:31:37.351Z,3.07
2023-03-11T01:32:37.399Z,3.09
2023-03-11T01:33:37.328Z,3.09
2023-03-11T01:34:37.334Z,3.02
2023-03-11T01:35:37.333Z,3.10
2023-03-11T01:36:37.296Z,3.03
2023-03-11T01:37:37.283Z,3.07
2023-03-11T01:38:37.289Z,3.02
2023-03-11T01:39:37.267Z,3.03
2023-03-11T01:40:37.285Z,2.95
2023-03-11T01:41:37.264Z,3.03
2023-03-11T01:42:37.234Z,2.95
2023-03-11T01:43:37.216Z,2.91
2023-03-11T01:44:37.209Z,2.91
2023-03-11T01:45:37.206Z,2.98
2023-03-11T01:46:37.275Z,2.98
2023-03-11T01:47:37.173Z,3.07
2023-03-11T01:48:37.162Z,3.07
2023-03-11T01:49:37.147Z,2.98
2023-03-11T01:50:37.175Z,2.94
2023-03-11T01:51:37.134Z,2.95
2023-03-11T01:52:37.120Z,2.94
2023-03-11T01:53:37.106Z,2.89
2023-03-11T01:54:37.096Z,3.05
2023-03-11T01:55:37.101Z,2.94
2023-03-11T01:56:37.099Z,2.95
2023-03-11T01:57:37.071Z,2.95
2023-03-11T01:58:37.051Z,2.89
2023-03-11T01:59:37.038Z,2.71
2023-03-11T02:00:37.062Z,2.85
2023-03-11T02:01:38.099Z,2.82
2023-03-11T02:02:37.054Z,2.85
2023-03-11T02:03:36.998Z,2.74
2023-03-11T02:04:36.991Z,2.76
2023-03-11T02:05:36.987Z,2.77
2023-03-11T02:06:36.969Z,2.89
2023-03-11T02:07:36.957Z,2.87
2023-03-11T02:08:36.945Z,2.85
2023-03-11T02:09:36.961Z,2.71
2023-03-11T02:10:36.970Z,2.79
2023-03-11T02:11:36.912Z,2.73
2023-03-11T02:12:36.933Z,2.76
2023-03-11T02:13:36.893Z,2.74
2023-03-11T02:14:36.884Z,2.70
2023-03-11T02:15:39.530Z,2.71
2023-03-11T02:16:36.862Z,2.79
2023-03-11T02:17:36.848Z,2.81
2023-03-11T02:18:36.848Z,2.82
2023-03-11T02:19:36.856Z,2.85
2023-03-11T02:20:36.836Z,2.70
2023-03-11T02:21:36.814Z,2.76
2023-03-11T02:22:36.807Z,2.76
2023-03-11T02:23:36.793Z,2.74
2023-03-11T02:24:36.788Z,2.69
2023-03-11T02:25:36.794Z,2.69
2023-03-11T02:26:36.760Z,2.56
2023-03-11T02:27:36.751Z,2.48
2023-03-11T02:28:36.761Z,2.48
2023-03-11T02:29:36.730Z,2.45
2023-03-11T02:30:36.763Z,2.40
2023-03-11T02:31:36.773Z,2.52
2023-03-11T02:32:36.752Z,2.46
2023-03-11T02:33:36.700Z,2.53
2023-03-11T02:34:36.677Z,2.49
2023-03-11T02:35:36.697Z,2.52
2023-03-11T02:36:36.663Z,2.52
2023-03-11T02:37:36.641Z,2.48
2023-03-11T02:38:36.632Z,2.52
2023-03-11T02:39:36.643Z,2.51
2023-03-11T02:40:36.631Z,2.58
2023-03-11T02:41:36.604Z,2.64
2023-03-11T02:42:36.591Z,2.53
2023-03-11T02:43:36.603Z,2.59
2023-03-11T02:44:36.584Z,2.58
2023-03-11T02:45:36.568Z,2.55
2023-03-11T02:46:36.560Z,2.53
2023-03-11T02:47:36.537Z,2.48
2023-03-11T02:48:36.531Z,2.46
2023-03-11T02:49:36.514Z,2.53
2023-03-11T02:50:36.529Z,2.51
2023-03-11T02:51:36.492Z,2.46
2023-03-11T02:52:36.481Z,2.46
2023-03-11T02:53:36.469Z,2.38
2023-03-11T02:54:36.469Z,2.45
2023-03-11T02:55:36.460Z,2.45
2023-03-11T02:56:36.440Z,2.55
2023-03-11T02:57:36.431Z,2.49
2023-03-11T02:58:36.415Z,2.61
2023-03-11T02:59:36.407Z,2.55
2023-03-11T03:00:36.493Z,2.51
2023-03-11T03:01:36.384Z,2.52
2023-03-11T03:02:36.377Z,2.52
2023-03-11T03:03:36.360Z,2.56
2023-03-11T03:04:36.437Z,2.49
2023-03-11T03:05:36.353Z,2.63
2023-03-11T03:06:36.326Z,2.58
2023-03-11T03:07:36.327Z,2.63
2023-03-11T03:08:36.308Z,2.64
2023-03-11T03:09:36.295Z,2.56
2023-03-11T03:10:36.301Z,2.55
2023-03-11T03:11:36.285Z,2.63
2023-03-11T03:12:36.271Z,2.53
2023-03-11T03:13:36.261Z,2.59
2023-03-11T03:14:36.248Z,2.59
2023-03-11T03:15:36.242Z,2.58
2023-03-11T03:16:36.278Z,2.58
2023-03-11T03:17:36.293Z,2.55
2023-03-11T03:18:36.208Z,2.46
2023-03-11T03:19:36.187Z,2.51
2023-03-11T03:20:36.206Z,2.49
2023-03-11T03:21:36.166Z,2.51
2023-03-11T03:22:36.154Z,2.41
2023-03-11T03:23:36.146Z,2.53
2023-03-11T03:24:36.140Z,2.45
2023-03-11T03:25:36.141Z,2.45
2023-03-11T03:26:36.115Z,2.35
2023-03-11T03:27:36.100Z,2.45
2023-03-11T03:28:36.092Z,2.41
2023-03-11T03:29:36.081Z,2.45
2023-03-11T03:30:36.096Z,2.45
2023-03-11T03:31:36.154Z,2.45
2023-03-11T03:32:36.161Z,2.46
2023-03-11T03:33:36.037Z,2.40
2023-03-11T03:34:36.028Z,2.45
2023-03-11T03:35:36.119Z,2.46
2023-03-11T03:36:36.017Z,2.38
2023-03-11T03:37:36.005Z,2.30
2023-03-11T03:38:35.990Z,2.19
2023-03-11T03:39:35.980Z,2.17
2023-03-11T03:40:35.981Z,2.15
2023-03-11T03:41:35.969Z,2.13
2023-03-11T03:42:35.947Z,2.12
2023-03-11T03:43:35.945Z,2.20
2023-03-11T03:44:35.949Z,2.19
2023-03-11T03:45:35.981Z,2.23
2023-03-11T03:46:35.909Z,2.19
2023-03-11T03:47:35.891Z,2.17
2023-03-11T03:48:35.906Z,2.20
2023-03-11T03:49:35.890Z,2.15
2023-03-11T03:50:35.889Z,2.20
2023-03-11T03:51:35.853Z,2.20
2023-03-11T03:52:35.842Z,2.20
2023-03-11T03:53:35.865Z,2.08
2023-03-11T03:54:35.827Z,2.12
2023-03-11T03:55:35.824Z,2.17
2023-03-11T03:56:43.574Z,2.22
2023-03-11T03:57:35.785Z,2.19
2023-03-11T03:58:35.779Z,2.16
2023-03-11T03:59:35.766Z,2.16
2023-03-11T04:00:35.773Z,2.19
2023-03-11T04:01:35.757Z,2.20
2023-03-11T04:02:35.957Z,2.19
2023-03-11T04:03:35.755Z,2.27
2023-03-11T04:04:36.049Z,2.30
2023-03-11T04:05:35.724Z,2.22
2023-03-11T04:06:35.701Z,2.19
2023-03-11T04:07:35.684Z,2.26
2023-03-11T04:08:35.675Z,2.28
2023-03-11T04:09:35.664Z,2.22
2023-03-11T04:10:35.671Z,2.27
2023-03-11T04:11:35.667Z,2.27
2023-03-11T04:12:35.633Z,2.22
2023-03-11T04:13:35.628Z,2.19
2023-03-11T04:14:35.615Z,2.17
2023-03-11T04:15:35.624Z,2.22
2023-03-11T04:16:35.686Z,2.22
2023-03-11T04:17:35.650Z,2.27
2023-03-11T04:18:35.566Z,2.27
2023-03-11T04:19:35.564Z,2.28
2023-03-11T04:20:35.577Z,2.19
2023-03-11T04:21:35.544Z,2.23
2023-03-11T04:22:35.527Z,2.26
2023-03-11T04:23:35.518Z,2.22
2023-03-11T04:24:35.512Z,2.16
2023-03-11T04:25:35.544Z,2.23
2023-03-11T04:26:35.484Z,2.17
2023-03-11T04:27:35.480Z,2.17
2023-03-11T04:28:35.464Z,2.20
2023-03-11T04:29:35.464Z,2.15
2023-03-11T04:30:35.500Z,2.17
2023-03-11T04:31:35.450Z,2.10
2023-03-11T04:32:35.446Z,2.23
2023-03-11T04:33:35.422Z,2.20
2023-03-11T04:34:35.397Z,2.08
2023-03-11T04:35:35.403Z,2.17
2023-03-11T04:36:35.402Z,2.17
2023-03-11T04:37:35.367Z,2.23
2023-03-11T04:38:35.350Z,2.26
2023-03-11T04:39:35.384Z,2.20
2023-03-11T04:40:35.378Z,2.27
2023-03-11T04:41:35.317Z,2.27
2023-03-11T04:42:35.310Z,2.19
2023-03-11T04:43:35.298Z,2.10
2023-03-11T04:44:35.297Z,2.20
2023-03-11T04:45:35.302Z,2.17
2023-03-11T04:46:35.321Z,2.10
2023-03-11T04:47:35.255Z,2.19
2023-03-11T04:48:35.245Z,2.09
2023-03-11T04:49:35.233Z,2.02
2023-03-11T04:50:35.254Z,2.02
2023-03-11T04:51:35.209Z,2.06
2023-03-11T04:52:35.222Z,2.06
2023-03-11T04:53:35.195Z,2.13
2023-03-11T04:54:35.198Z,2.17
2023-03-11T04:55:35.169Z,2.13
2023-03-11T04:56:35.157Z,2.20
2023-03-11T04:57:35.154Z,2.17
2023-03-11T04:58:35.141Z,2.17
2023-03-11T04:59:35.151Z,2.06
2023-03-11T05:00:35.127Z,2.10
2023-03-11T05:01:35.132Z,2.10
2023-03-11T05:02:35.093Z,2.10
2023-03-11T05:03:35.192Z,2.09
2023-03-11T05:04:35.124Z,2.06
2023-03-11T05:05:35.084Z,2.06
2023-03-11T05:06:35.053Z,2.08
2023-03-11T05:07:35.046Z,2.19
2023-03-11T05:08:35.143Z,2.13
2023-03-11T05:09:35.026Z,2.13
2023-03-11T05:10:35.033Z,2.13
2023-03-11T05:11:35.001Z,2.10
2023-03-11T05:12:34.987Z,2.17
2023-03-11T05:13:34.978Z,2.13
2023-03-11T05:14:34.993Z,2.22
2023-03-11T05:15:34.961Z,2.12
2023-03-11T05:16:34.950Z,2.08
2023-03-11T05:17:34.940Z,2.12
2023-03-11T05:18:34.930Z,2.12
2023-03-11T05:19:35.403Z,2.10
2023-03-11T05:20:34.923Z,2.06
2023-03-11T05:21:34.914Z,2.10
2023-03-11T05:22:34.888Z,2.12
2023-03-11T05:23:34.878Z,2.20
2023-03-11T05:24:34.889Z,2.17
2023-03-11T05:25:34.863Z,2.19
2023-03-11T05:26:34.855Z,2.16
2023-03-11T05:27:34.832Z,2.19
2023-03-11T05:28:34.826Z,2.19
2023-03-11T05:29:34.814Z,2.20
2023-03-11T05:30:34.803Z,2.13
2023-03-11T05:31:34.863Z,2.19
2023-03-11T05:32:34.841Z,2.09
2023-03-11T05:33:34.771Z,2.13
2023-03-11T05:34:34.773Z,2.20
2023-03-11T05:35:34.879Z,2.19
2023-03-11T05:36:34.742Z,2.15
2023-03-11T05:37:34.730Z,2.23
2023-03-11T05:38:34.729Z,2.19
2023-03-11T05:39:34.703Z,2.15
2023-03-11T05:40:34.715Z,2.20
2023-03-11T05:41:34.699Z,2.15
2023-03-11T05:42:34.674Z,2.13
2023-03-11T05:43:34.668Z,2.20
2023-03-11T05:44:34.661Z,2.19
2023-03-11T05:45:34.652Z,2.20
2023-03-11T05:46:34.696Z,2.26
2023-03-11T05:47:34.622Z,2.20
2023-03-11T05:48:34.616Z,2.20
2023-03-11T05:49:34.609Z,2.20
2023-03-11T05:50:34.596Z,2.19
2023-03-11T05:51:34.594Z,2.19
2023-03-11T05:52:34.567Z,2.19
2023-03-11T05:53:34.561Z,2.20
2023-03-11T05:54:34.551Z,2.19
2023-03-11T05:55:34.542Z,2.17
2023-03-11T05:56:34.555Z,2.17
2023-03-11T05:57:34.515Z,2.15
2023-03-11T05:58:34.531Z,2.17
2023-03-11T05:59:34.493Z,2.15
2023-03-11T06:00:34.481Z,2.16
2023-03-11T06:01:34.480Z,2.20
2023-03-11T06:02:34.464Z,2.23
2023-03-11T06:03:34.458Z,2.26
2023-03-11T06:04:34.654Z,2.33
2023-03-11T06:05:34.436Z,2.35
2023-03-11T06:06:34.454Z,2.44
2023-03-11T06:07:34.404Z,2.34
2023-03-11T06:08:34.395Z,2.33
2023-03-11T06:09:34.398Z,2.33
2023-03-11T06:10:34.372Z,2.28
2023-03-11T06:11:34.363Z,2.19
2023-03-11T06:12:34.371Z,2.23
2023-03-11T06:13:34.344Z,2.19
2023-03-11T06:14:34.366Z,2.20
2023-03-11T06:15:34.323Z,2.23
2023-03-11T06:16:34.437Z,2.20
2023-03-11T06:17:34.312Z,2.22
2023-03-11T06:18:34.288Z,2.26
2023-03-11T06:19:34.295Z,2.28
2023-03-11T06:20:34.264Z,2.33
2023-03-11T06:21:34.273Z,2.30
2023-03-11T06:22:34.247Z,2.33
2023-03-11T06:23:34.236Z,2.35
2023-03-11T06:24:34.226Z,2.35
2023-03-11T06:25:34.218Z,2.31
2023-03-11T06:26:34.225Z,2.41
2023-03-11T06:27:34.199Z,2.44
2023-03-11T06:28:34.207Z,2.45
2023-03-11T06:29:34.184Z,2.34
2023-03-11T06:30:34.164Z,2.30
2023-03-11T06:31:34.241Z,2.33
2023-03-11T06:32:34.203Z,2.33
2023-03-11T06:33:34.129Z,2.30
2023-03-11T06:34:34.240Z,2.20
2023-03-11T06:35:34.178Z,2.30
2023-03-11T06:36:34.114Z,2.22
2023-03-11T06:37:34.086Z,2.26
2023-03-11T06:38:36.270Z,2.30
2023-03-11T06:39:34.067Z,2.30
2023-03-11T06:40:34.061Z,2.35
2023-03-11T06:41:34.118Z,2.30
2023-03-11T06:42:34.035Z,2.23
2023-03-11T06:43:34.030Z,2.16
2023-03-11T06:44:34.034Z,2.26
2023-03-11T06:45:34.032Z,2.30
2023-03-11T06:46:34.008Z,2.26
2023-03-11T06:47:33.981Z,2.34
2023-03-11T06:48:33.971Z,2.37
2023-03-11T06:49:33.959Z,2.37
2023-03-11T06:50:33.949Z,2.45
2023-03-11T06:51:33.954Z,2.37
2023-03-11T06:52:33.926Z,2.30
2023-03-11T06:53:34.582Z,2.37
2023-03-11T06:54:33.925Z,2.35
2023-03-11T06:55:33.896Z,2.31
2023-03-11T06:56:33.881Z,2.23
2023-03-11T06:57:33.882Z,2.17
2023-03-11T06:58:33.867Z,2.17
2023-03-11T06:59:33.867Z,2.22
2023-03-11T07:00:33.862Z,2.20
2023-03-11T07:01:33.899Z,2.30
2023-03-11T07:02:33.818Z,2.31
2023-03-11T07:03:33.816Z,2.31
2023-03-11T07:04:33.811Z,2.30
2023-03-11T07:05:33.790Z,2.34
2023-03-11T07:06:33.794Z,2.41
2023-03-11T07:07:33.769Z,2.45
2023-03-11T07:08:33.761Z,2.51
2023-03-11T07:09:33.762Z,2.55
2023-03-11T07:10:33.751Z,2.55
2023-03-11T07:11:33.763Z,2.59
2023-03-11T07:12:33.720Z,2.58
2023-03-11T07:13:33.714Z,2.55
2023-03-11T07:14:33.693Z,2.69
2023-03-11T07:15:33.682Z,2.74
2023-03-11T07:16:33.751Z,2.70
2023-03-11T07:17:33.661Z,2.71
2023-03-11T07:18:33.673Z,2.74
2023-03-11T07:19:33.645Z,2.69
2023-03-11T07:20:33.629Z,2.74
2023-03-11T07:21:33.635Z,2.71
2023-03-11T07:22:33.616Z,2.66
2023-03-11T07:23:33.599Z,2.74
2023-03-11T07:24:33.600Z,2.77
2023-03-11T07:25:33.576Z,2.82
2023-03-11T07:26:33.600Z,2.85
2023-03-11T07:27:33.555Z,2.85
2023-03-11T07:28:33.548Z,2.94
2023-03-11T07:29:33.531Z,2.88
2023-03-11T07:30:33.520Z,2.73
2023-03-11T07:31:33.655Z,2.77
2023-03-11T07:32:33.579Z,2.73
2023-03-11T07:33:34.330Z,2.73
2023-03-11T07:34:33.480Z,2.79
2023-03-11T07:35:33.493Z,2.88
2023-03-11T07:36:33.471Z,2.94
2023-03-11T07:37:33.446Z,2.95
2023-03-11T07:38:33.438Z,2.88
2023-03-11T07:39:33.564Z,3.00
2023-03-11T07:40:33.430Z,3.10
2023-03-11T07:41:33.460Z,3.12
2023-03-11T07:42:33.394Z,3.03
2023-03-11T07:43:33.390Z,3.12
2023-03-11T07:44:33.373Z,3.21
2023-03-11T07:45:33.386Z,3.28
2023-03-11T07:46:33.435Z,3.21
2023-03-11T07:47:33.349Z,3.31
2023-03-11T07:48:33.425Z,3.31
2023-03-11T07:49:33.319Z,3.39
2023-03-11T07:50:33.312Z,3.47
2023-03-11T07:51:33.331Z,3.58
2023-03-11T07:52:33.664Z,3.54
2023-03-11T07:53:33.335Z,3.54
2023-03-11T07:54:33.402Z,3.46
2023-03-11T07:55:33.313Z,3.50
2023-03-11T07:56:33.299Z,3.50
2023-03-11T07:57:33.234Z,3.57
2023-03-11T07:58:33.225Z,3.53
2023-03-11T07:59:33.244Z,3.53
2023-03-11T08:00:33.198Z,3.57
2023-03-11T08:01:33.199Z,3.61
2023-03-11T08:02:33.237Z,3.68
2023-03-11T08:03:33.256Z,3.61
2023-03-11T08:04:33.170Z,3.65
2023-03-11T08:05:33.143Z,3.70
2023-03-11T08:06:33.149Z,3.70
2023-03-11T08:07:33.124Z,3.70
2023-03-11T08:08:33.138Z,3.79
2023-03-11T08:09:33.119Z,3.79
2023-03-11T08:10:33.095Z,3.82
2023-03-11T08:11:33.097Z,3.86
2023-03-11T08:12:33.068Z,3.88
2023-03-11T08:13:33.069Z,3.80
2023-03-11T08:14:33.119Z,3.88
2023-03-11T08:15:33.080Z,3.89
2023-03-11T08:16:33.033Z,3.96
2023-03-11T08:17:33.032Z,4.10
2023-03-11T08:18:33.001Z,4.21
2023-03-11T08:19:32.994Z,4.29
2023-03-11T08:20:33.033Z,4.40
2023-03-11T08:21:32.993Z,4.55
2023-03-11T08:22:32.961Z,4.77
2023-03-11T08:23:32.950Z,4.91
2023-03-11T08:24:32.939Z,5.22
2023-03-11T08:25:32.941Z,5.56
2023-03-11T08:26:32.918Z,6.28
2023-03-11T08:27:32.904Z,6.72
2023-03-11T08:28:32.897Z,7.05
2023-03-11T08:29:32.887Z,7.32
2023-03-11T08:30:32.887Z,7.32
2023-03-11T08:31:33.029Z,7.42
2023-03-11T08:32:32.894Z,7.22
2023-03-11T08:33:32.845Z,6.99
2023-03-11T08:34:32.834Z,6.81
2023-03-11T08:35:32.937Z,6.77
2023-03-11T08:36:32.847Z,6.54
2023-03-11T08:37:32.807Z,6.36
2023-03-11T08:38:32.864Z,6.41
2023-03-11T08:39:32.787Z,6.33
2023-03-11T08:40:32.768Z,6.40
2023-03-11T08:41:32.768Z,6.22
2023-03-11T08:42:32.744Z,6.25
2023-03-11T08:43:32.728Z,6.03
2023-03-11T08:44:32.744Z,5.98
2023-03-11T08:45:32.713Z,5.85
2023-03-11T08:46:32.770Z,5.75
2023-03-11T08:47:32.687Z,5.88
2023-03-11T08:48:32.681Z,5.92
2023-03-11T08:49:32.669Z,6.00
2023-03-11T08:50:41.225Z,6.11
2023-03-11T08:51:33.659Z,6.06
2023-03-11T08:52:32.652Z,6.04
2023-03-11T08:53:32.620Z,5.89
2023-03-11T08:54:32.611Z,5.83
2023-03-11T08:55:32.606Z,5.66
2023-03-11T08:56:32.620Z,5.64
2023-03-11T08:57:32.600Z,5.70
2023-03-11T08:58:32.568Z,5.64
2023-03-11T08:59:32.560Z,5.66
2023-03-11T09:00:32.552Z,5.66
2023-03-11T09:01:32.592Z,5.73
2023-03-11T09:02:32.560Z,5.56
2023-03-11T09:03:32.516Z,5.46
2023-03-11T09:04:32.539Z,5.46
2023-03-11T09:05:32.540Z,5.38
2023-03-11T09:06:32.510Z,5.37
2023-03-11T09:07:32.466Z,5.38
2023-03-11T09:08:32.481Z,5.17
2023-03-11T09:09:32.449Z,5.02
2023-03-11T09:10:32.444Z,5.07
2023-03-11T09:11:32.441Z,4.94
2023-03-11T09:12:32.410Z,4.96
2023-03-11T09:13:32.401Z,4.95
2023-03-11T09:14:32.388Z,4.96
2023-03-11T09:15:32.385Z,5.04
2023-03-11T09:16:32.545Z,5.04
2023-03-11T09:17:32.357Z,5.12
2023-03-11T09:18:32.354Z,5.12
2023-03-11T09:19:32.340Z,5.10
2023-03-11T09:20:32.327Z,5.07
2023-03-11T09:21:32.326Z,5.10
2023-03-11T09:22:32.308Z,5.12
2023-03-11T09:23:32.316Z,5.25
2023-03-11T09:24:32.299Z,5.34
2023-03-11T09:25:32.284Z,5.37
2023-03-11T09:26:32.274Z,5.31
2023-03-11T09:27:32.250Z,5.31
2023-03-11T09:28:32.241Z,5.34
2023-03-11T09:29:32.239Z,5.25
2023-03-11T09:30:32.224Z,5.22
2023-03-11T09:31:32.313Z,5.02
2023-03-11T09:32:32.236Z,4.94
2023-03-11T09:33:32.188Z,4.88
2023-03-11T09:34:32.191Z,4.73
2023-03-11T09:35:32.257Z,4.70
2023-03-11T09:36:32.168Z,4.75
2023-03-11T09:37:32.142Z,4.77
2023-03-11T09:38:32.135Z,4.69
2023-03-11T09:39:32.129Z,4.62
2023-03-11T09:40:32.128Z,4.55
2023-03-11T09:41:32.157Z,4.51
2023-03-11T09:42:32.095Z,4.54
2023-03-11T09:43:32.077Z,4.51
2023-03-11T09:44:32.088Z,4.52
2023-03-11T09:45:32.071Z,4.47
2023-03-11T09:46:32.135Z,4.46
2023-03-11T09:47:32.043Z,4.32
2023-03-11T09:48:32.048Z,4.33
2023-03-11T09:49:32.017Z,4.22
2023-03-11T09:50:32.004Z,4.14
2023-03-11T09:51:32.003Z,4.19
2023-03-11T09:52:31.982Z,4.08
2023-03-11T09:53:31.969Z,4.12
2023-03-11T09:54:31.959Z,4.03
2023-03-11T09:55:31.951Z,4.07
2023-03-11T09:56:31.964Z,4.08
2023-03-11T09:57:31.926Z,4.04
2023-03-11T09:58:31.914Z,4.12
2023-03-11T09:59:31.940Z,3.98
2023-03-11T10:00:31.894Z,3.89
2023-03-11T10:01:31.913Z,3.97
2023-03-11T10:02:32.049Z,3.83
2023-03-11T10:03:31.866Z,3.80
2023-03-11T10:04:31.853Z,3.88
2023-03-11T10:05:31.839Z,3.92
2023-03-11T10:06:31.854Z,3.80
2023-03-11T10:07:31.815Z,3.80
2023-03-11T10:08:31.809Z,3.79
2023-03-11T10:09:31.798Z,3.70
2023-03-11T10:10:31.786Z,3.80
2023-03-11T10:11:31.792Z,3.79
2023-03-11T10:12:31.786Z,3.78
2023-03-11T10:13:31.756Z,3.83
2023-03-11T10:14:31.744Z,3.90
2023-03-11T10:15:31.733Z,3.89
2023-03-11T10:16:31.854Z,3.85
2023-03-11T10:17:31.718Z,3.94
2023-03-11T10:18:31.698Z,3.92
2023-03-11T10:19:31.693Z,3.89
2023-03-11T10:20:31.679Z,4.06
2023-03-11T10:21:31.720Z,4.04
2023-03-11T10:22:31.672Z,4.08
2023-03-11T10:23:31.657Z,4.10
2023-03-11T10:24:31.642Z,4.10
2023-03-11T10:25:31.654Z,4.37
2023-03-11T10:26:31.653Z,4.73
2023-03-11T10:27:31.618Z,5.43
2023-03-11T10:28:31.713Z,6.21
2023-03-11T10:29:31.648Z,6.51
2023-03-11T10:30:31.569Z,6.69
2023-03-11T10:31:31.653Z,6.65
2023-03-11T10:32:31.562Z,6.73
2023-03-11T10:33:31.537Z,6.54
2023-03-11T10:34:31.605Z,6.56
2023-03-11T10:35:31.516Z,6.40
2023-03-11T10:36:31.514Z,6.26
2023-03-11T10:37:47.957Z,6.26
2023-03-11T10:38:32.479Z,6.79
2023-03-11T10:39:31.470Z,6.61
2023-03-11T10:40:31.464Z,6.47
2023-03-11T10:41:31.457Z,6.53
2023-03-11T10:42:31.441Z,6.41
2023-03-11T10:43:31.433Z,6.33
2023-03-11T10:44:31.441Z,6.26
2023-03-11T10:45:31.429Z,6.30
2023-03-11T10:46:31.408Z,6.14
2023-03-11T10:47:31.381Z,5.92
2023-03-11T10:48:31.376Z,5.91
2023-03-11T10:49:31.373Z,5.78
2023-03-11T10:50:31.352Z,5.73
2023-03-11T10:51:31.353Z,5.57
2023-03-11T10:52:31.334Z,5.45
2023-03-11T10:53:31.318Z,5.48
2023-03-11T10:54:31.307Z,5.37
2023-03-11T10:55:31.294Z,5.34
2023-03-11T10:56:31.294Z,5.28
2023-03-11T10:57:31.274Z,5.31
2023-03-11T10:58:31.292Z,5.34
2023-03-11T10:59:31.254Z,5.30
2023-03-11T11:00:31.262Z,5.25
2023-03-11T11:01:31.316Z,5.17
2023-03-11T11:02:31.272Z,5.12
2023-03-11T11:03:31.225Z,5.01
2023-03-11T11:04:31.321Z,5.04
2023-03-11T11:05:31.187Z,5.01
2023-03-11T11:06:31.197Z,4.95
2023-03-11T11:07:31.173Z,4.92
2023-03-11T11:08:31.159Z,4.86
2023-03-11T11:09:31.152Z,4.94
2023-03-11T11:10:31.138Z,5.01
2023-03-11T11:11:31.137Z,4.95
2023-03-11T11:12:31.117Z,4.99
2023-03-11T11:13:31.135Z,4.98
2023-03-11T11:14:31.095Z,4.92
2023-03-11T11:15:31.106Z,4.92
2023-03-11T11:16:31.182Z,4.76
2023-03-11T11:17:31.056Z,4.76
2023-03-11T11:18:31.056Z,4.86
2023-03-11T11:19:31.040Z,4.91
2023-03-11T11:20:31.027Z,4.88
2023-03-11T11:21:31.029Z,4.99
2023-03-11T11:22:31.005Z,4.94
2023-03-11T11:23:30.994Z,5.01
2023-03-11T11:24:31.014Z,4.92
2023-03-11T11:25:31.045Z,4.99
2023-03-11T11:26:30.981Z,4.86
2023-03-11T11:27:30.957Z,4.86
2023-03-11T11:28:30.945Z,4.77
2023-03-11T11:29:30.929Z,4.80
2023-03-11T11:30:30.960Z,4.79
2023-03-11T11:31:30.924Z,4.86
2023-03-11T11:32:30.963Z,4.83
2023-03-11T11:33:30.902Z,4.88
2023-03-11T11:34:30.883Z,4.89
2023-03-11T11:35:30.875Z,4.92
2023-03-11T11:36:30.871Z,5.04
2023-03-11T11:37:30.842Z,4.99
2023-03-11T11:38:30.830Z,4.88
2023-03-11T11:39:30.818Z,4.79
2023-03-11T11:40:30.816Z,4.76
2023-03-11T11:41:30.810Z,4.84
2023-03-11T11:42:30.789Z,4.75
2023-03-11T11:43:30.777Z,4.91
2023-03-11T11:44:30.765Z,4.88
2023-03-11T11:45:30.749Z,4.91
2023-03-11T11:46:30.793Z,4.92
2023-03-11T11:47:30.727Z,4.98
2023-03-11T11:48:30.739Z,5.01
2023-03-11T11:49:30.709Z,4.94
2023-03-11T11:50:30.697Z,5.07
2023-03-11T11:51:30.700Z,5.07
2023-03-11T11:52:30.679Z,5.12
2023-03-11T11:53:30.672Z,5.22
2023-03-11T11:54:30.655Z,5.12
2023-03-11T11:55:30.654Z,5.19
2023-03-11T11:56:30.656Z,5.22
2023-03-11T11:57:30.620Z,5.19
2023-03-11T11:58:30.610Z,5.16
2023-03-11T11:59:30.607Z,5.20
2023-03-11T12:00:30.586Z,5.27
2023-03-11T12:01:30.596Z,5.20
2023-03-11T12:02:30.563Z,5.12
2023-03-11T12:03:30.587Z,5.16
2023-03-11T12:04:30.565Z,5.12
2023-03-11T12:05:30.582Z,5.17
2023-03-11T12:06:30.519Z,5.25
2023-03-11T12:07:30.525Z,5.34
2023-03-11T12:08:30.498Z,5.31
2023-03-11T12:09:30.486Z,5.35
2023-03-11T12:10:30.481Z,5.30
2023-03-11T12:11:30.524Z,5.32
2023-03-11T12:12:30.472Z,5.46
2023-03-11T12:13:30.443Z,5.28
2023-03-11T12:14:30.442Z,5.43
2023-03-11T12:15:30.507Z,5.32
2023-03-11T12:16:30.411Z,5.34
2023-03-11T12:17:30.428Z,5.56
2023-03-11T12:18:30.440Z,5.46
2023-03-11T12:19:30.377Z,5.37
2023-03-11T12:20:30.392Z,5.45
2023-03-11T12:21:30.366Z,5.43
2023-03-11T12:22:30.355Z,5.49
2023-03-11T12:23:30.331Z,5.56
2023-03-11T12:24:30.323Z,5.43
2023-03-11T12:25:30.310Z,5.46
2023-03-11T12:26:30.319Z,5.45
2023-03-11T12:27:30.300Z,5.49
2023-03-11T12:28:30.281Z,5.55
2023-03-11T12:29:30.268Z,5.55
2023-03-11T12:30:30.258Z,5.59
2023-03-11T12:31:30.301Z,5.52
2023-03-11T12:32:30.367Z,5.49
2023-03-11T12:33:30.228Z,5.48
2023-03-11T12:34:30.240Z,5.48
2023-03-11T12:35:30.287Z,5.38
2023-03-11T12:36:30.228Z,5.31
2023-03-11T12:37:30.195Z,5.37
2023-03-11T12:38:30.173Z,5.45
2023-03-11T12:39:30.162Z,5.38
2023-03-11T12:40:30.175Z,5.31
2023-03-11T12:41:30.146Z,5.16
2023-03-11T12:42:30.140Z,5.13
2023-03-11T12:43:30.201Z,5.04
2023-03-11T12:44:30.113Z,5.07
2023-03-11T12:45:30.105Z,5.04
2023-03-11T12:46:30.108Z,5.01
2023-03-11T12:47:30.105Z,4.96
2023-03-11T12:48:30.066Z,4.99
2023-03-11T12:49:30.058Z,4.88
2023-03-11T12:50:30.045Z,4.89
2023-03-11T12:51:30.040Z,5.02
2023-03-11T12:52:30.098Z,4.98
2023-03-11T12:53:30.012Z,5.01
2023-03-11T12:54:29.999Z,5.02
2023-03-11T12:55:30.032Z,4.99
2023-03-11T12:56:30.000Z,5.04
2023-03-11T12:57:29.977Z,5.02
2023-03-11T12:58:29.960Z,5.02
2023-03-11T12:59:29.946Z,5.10
2023-03-11T13:00:29.933Z,5.13
2023-03-11T13:01:29.997Z,5.04
2023-03-11T13:02:30.084Z,5.16
2023-03-11T13:03:29.929Z,5.10
2023-03-11T13:04:29.892Z,5.01
2023-03-11T13:05:29.890Z,5.04
2023-03-11T13:06:29.873Z,5.14
2023-03-11T13:07:29.956Z,4.94
2023-03-11T13:08:29.900Z,5.01
2023-03-11T13:09:31.529Z,5.01
2023-03-11T13:10:29.833Z,4.98
2023-03-11T13:11:29.820Z,5.01
2023-03-11T13:12:29.856Z,4.95
2023-03-11T13:13:29.813Z,4.96
2023-03-11T13:14:29.906Z,4.98
2023-03-11T13:15:29.853Z,4.99
2023-03-11T13:16:29.804Z,4.98
2023-03-11T13:17:29.790Z,4.96
2023-03-11T13:18:29.747Z,4.92